createdAt,value
2022-10-05T00:00:18.974Z,23.10
2022-10-05T00:01:19.024Z,20.00
2022-10-05T00:02:18.965Z,18.70
2022-10-05T00:03:18.950Z,15.50
2022-10-05T00:04:18.942Z,15.10
2022-10-05T00:05:19.042Z,14.90
2022-10-05T00:06:18.943Z,13.50
2022-10-05T00:07:18.924Z,16.50
2022-10-05T00:08:18.931Z,15.20
2022-10-05T00:09:18.910Z,15.10
2022-10-05T00:10:18.924Z,13.40
2022-10-05T00:11:18.926Z,17.10
2022-10-05T00:12:18.881Z,14.20
2022-10-05T00:13:18.886Z,20.30
2022-10-05T00:14:18.862Z,17.40
2022-10-05T00:15:18.885Z,19.00
2022-10-05T00:16:18.892Z,16.40
2022-10-05T00:17:18.831Z,14.90
2022-10-05T00:18:18.829Z,14.70
2022-10-05T00:19:18.812Z,14.70
2022-10-05T00:20:18.841Z,18.50
2022-10-05T00:21:18.800Z,14.60
2022-10-05T00:22:18.829Z,16.30
2022-10-05T00:23:18.809Z,15.20
2022-10-05T00:24:18.793Z,14.60
2022-10-05T00:25:18.777Z,16.20
2022-10-05T00:26:18.784Z,18.10
2022-10-05T00:27:18.755Z,20.10
2022-10-05T00:28:18.803Z,14.30
2022-10-05T00:29:18.761Z,21.50
2022-10-05T00:30:18.732Z,15.90
2022-10-05T00:31:18.857Z,16.20
2022-10-05T00:32:18.707Z,17.60
2022-10-05T00:33:18.698Z,16.30
2022-10-05T00:34:18.685Z,17.10
2022-10-05T00:35:18.694Z,17.20
2022-10-05T00:36:18.688Z,15.30
2022-10-05T00:37:18.696Z,14.70
2022-10-05T00:38:18.701Z,14.90
2022-10-05T00:39:18.641Z,15.20
2022-10-05T00:40:18.653Z,14.10
2022-10-05T00:41:18.658Z,17.10
2022-10-05T00:42:18.614Z,13.70
2022-10-05T00:43:18.652Z,17.80
2022-10-05T00:44:18.609Z,17.90
2022-10-05T00:45:18.601Z,20.60
2022-10-05T00:46:18.677Z,21.50
2022-10-05T00:47:18.589Z,18.50
2022-10-05T00:48:18.572Z,20.20
2022-10-05T00:49:18.588Z,18.80
2022-10-05T00:50:18.558Z,17.40
2022-10-05T00:51:18.553Z,16.60
2022-10-05T00:52:18.625Z,21.30
2022-10-05T00:53:18.547Z,23.00
2022-10-05T00:54:18.567Z,16.10
2022-10-05T00:55:18.509Z,17.50
2022-10-05T00:56:18.532Z,19.50
2022-10-05T00:57:18.501Z,17.30
2022-10-05T00:58:18.491Z,22.10
2022-10-05T00:59:18.508Z,21.10
2022-10-05T01:00:18.468Z,20.80
2022-10-05T01:01:18.522Z,20.00
2022-10-05T01:02:18.507Z,21.50
2022-10-05T01:03:18.446Z,20.60
2022-10-05T01:04:18.436Z,18.00
2022-10-05T01:05:18.453Z,17.60
2022-10-05T01:06:18.423Z,15.90
2022-10-05T01:07:18.409Z,13.50
2022-10-05T01:08:18.410Z,17.30
2022-10-05T01:09:18.396Z,21.00
2022-10-05T01:10:18.413Z,22.80
2022-10-05T01:11:18.424Z,22.60
2022-10-05T01:12:18.374Z,22.20
2022-10-05T01:13:18.355Z,23.00
2022-10-05T01:14:18.357Z,21.90
2022-10-05T01:15:18.341Z,22.40
2022-10-05T01:16:18.367Z,26.90
2022-10-05T01:17:18.375Z,22.80
2022-10-05T01:18:18.331Z,16.60
2022-10-05T01:19:18.310Z,15.10
2022-10-05T01:20:18.328Z,15.80
2022-10-05T01:21:18.317Z,14.20
2022-10-05T01:22:18.303Z,15.00
2022-10-05T01:23:18.303Z,17.70
2022-10-05T01:24:18.264Z,23.50
2022-10-05T01:25:18.856Z,23.90
2022-10-05T01:26:18.249Z,24.90
2022-10-05T01:27:18.235Z,17.90
2022-10-05T01:28:18.300Z,15.30
2022-10-05T01:29:18.236Z,14.80
2022-10-05T01:30:18.200Z,17.00
2022-10-05T01:31:18.210Z,16.30
2022-10-05T01:32:18.195Z,13.40
2022-10-05T01:33:18.181Z,16.40
2022-10-05T01:34:18.190Z,18.70
2022-10-05T01:35:18.193Z,27.80
2022-10-05T01:36:18.163Z,20.90
2022-10-05T01:37:18.163Z,16.30
2022-10-05T01:38:18.136Z,19.10
2022-10-05T01:39:18.125Z,16.60
2022-10-05T01:40:18.120Z,13.40
2022-10-05T01:41:18.159Z,14.60
2022-10-05T01:42:18.114Z,15.70
2022-10-05T01:43:18.143Z,16.40
2022-10-05T01:44:18.085Z,15.30
2022-10-05T01:45:18.083Z,14.30
2022-10-05T01:46:18.154Z,16.00
2022-10-05T01:47:18.070Z,16.60
2022-10-05T01:48:18.069Z,22.50
2022-10-05T01:49:18.073Z,21.40
2022-10-05T01:50:18.036Z,25.30
2022-10-05T01:51:18.019Z,21.00
2022-10-05T01:52:18.035Z,22.80
2022-10-05T01:53:18.012Z,14.80
2022-10-05T01:54:18.000Z,20.20
2022-10-05T01:55:18.012Z,14.40
2022-10-05T01:56:17.992Z,19.80
2022-10-05T01:57:17.994Z,22.70
2022-10-05T01:58:17.975Z,15.20
2022-10-05T01:59:17.960Z,14.80
2022-10-05T02:00:17.945Z,14.10
2022-10-05T02:01:18.091Z,19.10
2022-10-05T02:02:17.986Z,15.60
2022-10-05T02:03:17.923Z,17.60
2022-10-05T02:04:37.271Z,19.20
2022-10-05T02:05:18.905Z,16.80
2022-10-05T02:06:17.890Z,17.30
2022-10-05T02:07:17.903Z,16.40
2022-10-05T02:08:17.871Z,21.40
2022-10-05T02:09:17.859Z,19.40
2022-10-05T02:10:17.898Z,20.00
2022-10-05T02:11:17.857Z,17.90
2022-10-05T02:12:17.833Z,21.70
2022-10-05T02:13:17.866Z,20.30
2022-10-05T02:14:17.832Z,26.70
2022-10-05T02:15:17.813Z,21.90
2022-10-05T02:16:17.881Z,22.40
2022-10-05T02:17:17.794Z,20.50
2022-10-05T02:18:17.793Z,20.00
2022-10-05T02:19:17.799Z,21.40
2022-10-05T02:20:17.769Z,21.20
2022-10-05T02:21:17.762Z,23.50
2022-10-05T02:22:17.761Z,20.80
2022-10-05T02:23:17.745Z,17.10
2022-10-05T02:24:17.728Z,14.70
2022-10-05T02:25:17.749Z,13.40
2022-10-05T02:26:17.731Z,15.40
2022-10-05T02:27:17.703Z,13.10
2022-10-05T02:28:17.767Z,14.10
2022-10-05T02:29:17.693Z,20.40
2022-10-05T02:30:17.691Z,28.10
2022-10-05T02:31:17.713Z,15.50
2022-10-05T02:32:17.894Z,15.00
2022-10-05T02:33:17.727Z,15.50
2022-10-05T02:34:17.650Z,11.80
2022-10-05T02:35:17.643Z,11.10
2022-10-05T02:36:17.664Z,11.90
2022-10-05T02:37:17.611Z,10.60
2022-10-05T02:38:17.612Z,10.60
2022-10-05T02:39:17.600Z,10.60
2022-10-05T02:40:17.583Z,12.30
2022-10-05T02:41:17.594Z,12.70
2022-10-05T02:42:18.444Z,13.50
2022-10-05T02:43:17.571Z,12.50
2022-10-05T02:44:17.561Z,14.00
2022-10-05T02:45:17.561Z,12.30
2022-10-05T02:46:17.598Z,12.80
2022-10-05T02:47:17.538Z,13.00
2022-10-05T02:48:17.596Z,13.90
2022-10-05T02:49:17.544Z,12.60
2022-10-05T02:50:17.516Z,14.30
2022-10-05T02:51:17.495Z,14.60
2022-10-05T02:52:17.498Z,12.40
2022-10-05T02:53:17.507Z,12.80
2022-10-05T02:54:17.483Z,11.10
2022-10-05T02:55:17.491Z,11.00
2022-10-05T02:56:17.469Z,12.40
2022-10-05T02:57:17.455Z,10.40
2022-10-05T02:58:17.451Z,11.00
2022-10-05T02:59:17.455Z,9.60
2022-10-05T03:00:17.464Z,8.90
2022-10-05T03:01:17.544Z,11.80
2022-10-05T03:02:17.556Z,9.50
2022-10-05T03:03:17.408Z,12.40
2022-10-05T03:04:17.402Z,14.40
2022-10-05T03:05:17.444Z,12.30
2022-10-05T03:06:17.375Z,10.70
2022-10-05T03:07:17.402Z,33.80
2022-10-05T03:08:17.358Z,43.70
2022-10-05T03:09:17.357Z,86.90
2022-10-05T03:10:17.370Z,42.80
2022-10-05T03:11:17.385Z,39.40
2022-10-05T03:12:17.341Z,104.50
2022-10-05T03:13:17.342Z,29.30
2022-10-05T03:14:17.316Z,42.90
2022-10-05T03:15:17.309Z,54.00
2022-10-05T03:16:17.390Z,163.40
2022-10-05T03:17:17.345Z,55.10
2022-10-05T03:18:17.281Z,111.10
2022-10-05T03:19:17.278Z,10.10
2022-10-05T03:20:17.300Z,28.90
2022-10-05T03:21:17.273Z,14.20
2022-10-05T03:22:17.253Z,11.30
2022-10-05T03:23:17.340Z,9.60
2022-10-05T03:24:17.280Z,9.70
2022-10-05T03:25:17.270Z,9.90
2022-10-05T03:26:17.229Z,11.40
2022-10-05T03:27:17.228Z,17.10
2022-10-05T03:28:17.300Z,44.30
2022-10-05T03:29:17.209Z,57.30
2022-10-05T03:30:17.220Z,165.30
2022-10-05T03:31:17.269Z,198.30
2022-10-05T03:32:17.200Z,250.10
2022-10-05T03:33:17.168Z,193.60
2022-10-05T03:34:17.165Z,179.50
2022-10-05T03:35:17.162Z,64.70
2022-10-05T03:36:17.157Z,33.20
2022-10-05T03:37:17.171Z,18.90
2022-10-05T03:38:17.142Z,86.70
2022-10-05T03:39:17.127Z,54.50
2022-10-05T03:40:17.123Z,201.30
2022-10-05T03:41:17.120Z,77.00
2022-10-05T03:42:17.117Z,93.80
2022-10-05T03:43:17.117Z,29.80
2022-10-05T03:44:17.102Z,65.00
2022-10-05T03:45:17.076Z,119.00
2022-10-05T03:46:17.146Z,55.00
2022-10-05T03:47:17.127Z,23.50
2022-10-05T03:48:17.058Z,96.10
2022-10-05T03:49:17.078Z,27.00
2022-10-05T03:50:17.047Z,102.70
2022-10-05T03:51:17.043Z,116.40
2022-10-05T03:52:17.029Z,153.30
2022-10-05T03:53:17.039Z,54.80
2022-10-05T03:54:17.081Z,85.30
2022-10-05T03:55:17.002Z,50.90
2022-10-05T03:56:17.017Z,74.00
2022-10-05T03:57:16.976Z,80.70
2022-10-05T03:58:17.003Z,59.80
2022-10-05T03:59:16.968Z,89.40
2022-10-05T04:00:16.958Z,42.70
2022-10-05T04:01:17.078Z,52.10
2022-10-05T04:02:17.025Z,55.50
2022-10-05T04:03:16.975Z,28.20
2022-10-05T04:04:16.952Z,21.50
2022-10-05T04:05:16.921Z,37.30
2022-10-05T04:06:16.959Z,25.10
2022-10-05T04:07:16.914Z,41.20
2022-10-05T04:08:16.894Z,27.20
2022-10-05T04:09:16.916Z,31.70
2022-10-05T04:10:16.896Z,43.00
2022-10-05T04:11:16.880Z,23.00
2022-10-05T04:12:16.879Z,36.80
2022-10-05T04:13:16.894Z,51.30
2022-10-05T04:14:16.846Z,22.10
2022-10-05T04:15:19.014Z,121.40
2022-10-05T04:16:16.883Z,111.10
2022-10-05T04:17:16.881Z,107.10
2022-10-05T04:18:16.824Z,78.80
2022-10-05T04:19:16.823Z,111.00
2022-10-05T04:20:16.795Z,116.80
2022-10-05T04:21:21.342Z,101.00
2022-10-05T04:22:17.819Z,152.60
2022-10-05T04:23:16.798Z,156.70
2022-10-05T04:24:16.762Z,209.10
2022-10-05T04:25:16.858Z,198.60
2022-10-05T04:26:16.755Z,132.50
2022-10-05T04:27:16.756Z,76.90
2022-10-05T04:28:16.777Z,64.50
2022-10-05T04:29:16.748Z,65.10
2022-10-05T04:30:16.743Z,57.00
2022-10-05T04:31:16.768Z,44.00
2022-10-05T04:32:16.700Z,126.00
2022-10-05T04:33:16.705Z,75.40
2022-10-05T04:34:16.758Z,39.50
2022-10-05T04:35:16.728Z,46.10
2022-10-05T04:36:16.684Z,45.60
2022-10-05T04:37:16.687Z,42.00
2022-10-05T04:38:16.667Z,141.20
2022-10-05T04:39:16.648Z,36.40
2022-10-05T04:40:16.648Z,51.50
2022-10-05T04:41:16.675Z,51.00
2022-10-05T04:42:16.631Z,57.20
2022-10-05T04:43:16.615Z,42.90
2022-10-05T04:44:16.615Z,46.20
2022-10-05T04:45:16.605Z,72.60
2022-10-05T04:46:16.618Z,124.60
2022-10-05T04:47:16.614Z,49.10
2022-10-05T04:48:16.580Z,44.60
2022-10-05T04:49:16.571Z,25.70
2022-10-05T04:50:16.569Z,32.40
2022-10-05T04:51:16.562Z,35.60
2022-10-05T04:52:16.565Z,35.10
2022-10-05T04:53:16.551Z,23.60
2022-10-05T04:54:16.903Z,140.10
2022-10-05T04:55:16.538Z,154.50
2022-10-05T04:56:16.579Z,137.90
2022-10-05T04:57:16.630Z,123.10
2022-10-05T04:58:16.568Z,116.30
2022-10-05T04:59:17.396Z,181.10
2022-10-05T05:00:16.487Z,130.70
2022-10-05T05:01:16.558Z,248.50
2022-10-05T05:02:16.472Z,112.80
2022-10-05T05:03:16.461Z,157.60
2022-10-05T05:04:16.461Z,104.30
2022-10-05T05:05:16.545Z,179.90
2022-10-05T05:06:18.061Z,216.00
2022-10-05T05:07:16.437Z,223.30
2022-10-05T05:08:16.431Z,115.10
2022-10-05T05:09:16.420Z,125.40
2022-10-05T05:10:16.400Z,67.30
2022-10-05T05:11:20.076Z,151.30
2022-10-05T05:12:17.388Z,155.70
2022-10-05T05:13:16.379Z,157.40
2022-10-05T05:14:16.500Z,265.20
2022-10-05T05:15:16.426Z,287.10
2022-10-05T05:16:16.517Z,304.50
2022-10-05T05:17:16.386Z,295.40
2022-10-05T05:18:16.377Z,234.30
2022-10-05T05:19:16.348Z,328.50
2022-10-05T05:20:16.337Z,460.00
2022-10-05T05:21:16.328Z,494.20
2022-10-05T05:22:16.322Z,419.10
2022-10-05T05:23:16.333Z,579.30
2022-10-05T05:24:16.317Z,427.10
2022-10-05T05:25:16.286Z,261.10
2022-10-05T05:26:16.519Z,483.20
2022-10-05T05:27:16.294Z,368.80
2022-10-05T05:28:16.399Z,353.90
2022-10-05T05:29:16.266Z,312.40
2022-10-05T05:30:16.270Z,438.80
2022-10-05T05:31:16.329Z,163.30
2022-10-05T05:32:16.242Z,164.50
2022-10-05T05:33:16.249Z,215.50
2022-10-05T05:34:16.228Z,207.80
2022-10-05T05:35:16.251Z,238.60
2022-10-05T05:36:20.751Z,390.90
2022-10-05T05:37:17.201Z,134.70
2022-10-05T05:38:16.207Z,118.10
2022-10-05T05:39:16.207Z,170.20
2022-10-05T05:40:16.193Z,170.60
2022-10-05T05:41:16.201Z,152.20
2022-10-05T05:42:16.155Z,124.10
2022-10-05T05:43:16.161Z,434.80
2022-10-05T05:44:16.145Z,380.50
2022-10-05T05:45:16.207Z,272.90
2022-10-05T05:46:16.195Z,181.00
2022-10-05T05:47:16.227Z,180.70
2022-10-05T05:48:16.122Z,244.70
2022-10-05T05:49:16.146Z,183.70
2022-10-05T05:50:16.138Z,115.20
2022-10-05T05:51:16.117Z,113.30
2022-10-05T05:52:16.097Z,118.80
2022-10-05T05:53:16.104Z,121.20
2022-10-05T05:54:16.075Z,88.30
2022-10-05T05:55:16.070Z,159.50
2022-10-05T05:56:16.099Z,140.90
2022-10-05T05:57:16.063Z,151.30
2022-10-05T05:58:16.051Z,207.70
2022-10-05T05:59:16.323Z,199.00
2022-10-05T06:00:16.063Z,191.20
2022-10-05T06:01:30.928Z,245.60
2022-10-05T06:02:17.278Z,191.80
2022-10-05T06:03:16.122Z,122.40
2022-10-05T06:04:16.017Z,143.80
2022-10-05T06:05:15.989Z,178.10
2022-10-05T06:06:16.009Z,134.50
2022-10-05T06:07:15.985Z,176.90
2022-10-05T06:08:15.979Z,161.20
2022-10-05T06:09:15.978Z,127.80
2022-10-05T06:10:15.972Z,178.80
2022-10-05T06:11:15.964Z,148.30
2022-10-05T06:12:15.963Z,83.00
2022-10-05T06:13:15.969Z,92.40
2022-10-05T06:14:15.972Z,129.30
2022-10-05T06:15:15.924Z,85.20
2022-10-05T06:16:15.988Z,80.80
2022-10-05T06:17:15.905Z,95.60
2022-10-05T06:18:15.911Z,55.00
2022-10-05T06:19:15.912Z,40.00
2022-10-05T06:20:15.882Z,37.70
2022-10-05T06:21:15.909Z,41.60
2022-10-05T06:22:15.856Z,38.00
2022-10-05T06:23:15.882Z,43.20
2022-10-05T06:24:15.878Z,39.60
2022-10-05T06:25:15.850Z,37.30
2022-10-05T06:26:15.828Z,31.10
2022-10-05T06:27:15.836Z,37.60
2022-10-05T06:28:15.953Z,34.30
2022-10-05T06:29:15.818Z,42.30
2022-10-05T06:30:15.822Z,32.40
2022-10-05T06:31:15.854Z,36.60
2022-10-05T06:32:15.792Z,31.80
2022-10-05T06:33:15.787Z,33.70
2022-10-05T06:34:15.765Z,32.10
2022-10-05T06:35:15.790Z,32.90
2022-10-05T06:36:15.736Z,21.70
2022-10-05T06:37:15.738Z,23.00
2022-10-05T06:38:15.725Z,25.90
2022-10-05T06:39:15.744Z,23.50
2022-10-05T06:40:15.705Z,21.40
2022-10-05T06:41:15.740Z,21.60
2022-10-05T06:42:15.697Z,26.20
2022-10-05T06:43:15.694Z,22.30
2022-10-05T06:44:15.696Z,23.10
2022-10-05T06:45:15.689Z,25.60
2022-10-05T06:46:15.752Z,29.10
2022-10-05T06:47:15.669Z,67.30
2022-10-05T06:48:15.678Z,126.90
2022-10-05T06:49:15.649Z,67.60
2022-10-05T06:50:15.636Z,65.70
2022-10-05T06:51:15.613Z,52.50
2022-10-05T06:52:15.630Z,46.20
2022-10-05T06:53:15.626Z,49.70
2022-10-05T06:54:15.608Z,36.40
2022-10-05T06:55:15.594Z,26.40
2022-10-05T06:56:15.581Z,32.60
2022-10-05T06:57:15.596Z,27.20
2022-10-05T06:58:15.582Z,20.70
2022-10-05T06:59:15.600Z,24.60
2022-10-05T07:00:15.551Z,26.20
2022-10-05T07:01:15.648Z,19.90
2022-10-05T07:02:15.593Z,23.20
2022-10-05T07:03:15.543Z,23.20
2022-10-05T07:04:23.075Z,23.80
2022-10-05T07:05:15.549Z,21.60
2022-10-05T07:06:15.494Z,22.90
2022-10-05T07:07:15.482Z,19.30
2022-10-05T07:08:15.531Z,23.90
2022-10-05T07:09:15.485Z,22.00
2022-10-05T07:10:15.456Z,20.00
2022-10-05T07:11:15.457Z,24.10
2022-10-05T07:12:15.450Z,21.00
2022-10-05T07:13:15.424Z,19.00
2022-10-05T07:14:15.478Z,21.40
2022-10-05T07:15:15.418Z,22.60
2022-10-05T07:16:15.445Z,22.40
2022-10-05T07:17:15.408Z,23.20
2022-10-05T07:18:15.388Z,20.80
2022-10-05T07:19:15.374Z,21.30
2022-10-05T07:20:15.384Z,23.00
2022-10-05T07:21:15.348Z,22.50
2022-10-05T07:22:15.348Z,21.10
2022-10-05T07:23:15.348Z,20.10
2022-10-05T07:24:15.332Z,21.90
2022-10-05T07:25:15.315Z,23.70
2022-10-05T07:26:15.341Z,21.00
2022-10-05T07:27:15.306Z,20.90
2022-10-05T07:28:15.369Z,23.00
2022-10-05T07:29:15.297Z,23.30
2022-10-05T07:30:15.292Z,26.30
2022-10-05T07:31:15.311Z,20.10
2022-10-05T07:32:15.318Z,21.20
2022-10-05T07:33:15.262Z,20.90
2022-10-05T07:34:15.267Z,19.10
2022-10-05T07:35:15.254Z,20.30
2022-10-05T07:36:15.242Z,18.20
2022-10-05T07:37:15.228Z,17.30
2022-10-05T07:38:15.245Z,16.70
2022-10-05T07:39:15.237Z,17.00
2022-10-05T07:40:15.249Z,15.00
2022-10-05T07:41:15.189Z,15.80
2022-10-05T07:42:15.188Z,17.60
2022-10-05T07:43:15.201Z,15.50
2022-10-05T07:44:15.169Z,18.00
2022-10-05T07:45:15.182Z,21.10
2022-10-05T07:46:15.248Z,19.30
2022-10-05T07:47:15.148Z,20.40
2022-10-05T07:48:15.164Z,22.60
2022-10-05T07:49:15.143Z,20.80
2022-10-05T07:50:15.222Z,21.10
2022-10-05T07:51:15.122Z,22.50
2022-10-05T07:52:15.107Z,22.60
2022-10-05T07:53:15.125Z,22.90
2022-10-05T07:54:15.082Z,23.60
2022-10-05T07:55:15.090Z,25.20
2022-10-05T07:56:15.065Z,25.90
2022-10-05T07:57:15.062Z,28.00
2022-10-05T07:58:15.049Z,27.80
2022-10-05T07:59:15.067Z,28.10
2022-10-05T08:00:15.094Z,30.10
2022-10-05T08:01:15.044Z,27.50
2022-10-05T08:02:15.329Z,28.00
2022-10-05T08:03:15.134Z,27.80
2022-10-05T08:04:15.006Z,30.40
2022-10-05T08:05:15.005Z,28.40
2022-10-05T08:06:14.980Z,29.40
2022-10-05T08:07:15.006Z,28.40
2022-10-05T08:08:16.863Z,27.90
2022-10-05T08:09:15.008Z,29.90
2022-10-05T08:10:14.958Z,29.70
2022-10-05T08:11:14.980Z,30.90
2022-10-05T08:12:14.937Z,31.60
2022-10-05T08:13:14.919Z,29.30
2022-10-05T08:14:14.918Z,29.40
2022-10-05T08:15:14.906Z,30.50
2022-10-05T08:16:15.013Z,29.60
2022-10-05T08:17:14.911Z,29.40
2022-10-05T08:18:14.933Z,29.10
2022-10-05T08:19:14.867Z,29.50
2022-10-05T08:20:14.872Z,27.00
2022-10-05T08:21:14.884Z,27.40
2022-10-05T08:22:14.845Z,28.50
2022-10-05T08:23:14.875Z,28.80
2022-10-05T08:24:14.963Z,25.90
2022-10-05T08:25:14.834Z,30.80
2022-10-05T08:26:14.830Z,26.10
2022-10-05T08:27:14.831Z,27.20
2022-10-05T08:28:14.839Z,28.20
2022-10-05T08:29:14.908Z,27.40
2022-10-05T08:30:14.804Z,26.70
2022-10-05T08:31:14.939Z,25.10
2022-10-05T08:32:14.840Z,26.10
2022-10-05T08:33:14.765Z,26.80
2022-10-05T08:34:14.748Z,27.80
2022-10-05T08:35:14.741Z,27.60
2022-10-05T08:36:14.741Z,28.40
2022-10-05T08:37:14.782Z,26.50
2022-10-05T08:38:14.722Z,27.60
2022-10-05T08:39:14.719Z,27.80
2022-10-05T08:40:14.712Z,24.30
2022-10-05T08:41:14.692Z,25.30
2022-10-05T08:42:14.708Z,26.90
2022-10-05T08:43:14.782Z,25.50
2022-10-05T08:44:14.670Z,27.00
2022-10-05T08:45:14.664Z,26.40
2022-10-05T08:46:14.764Z,27.80
2022-10-05T08:47:14.644Z,26.20
2022-10-05T08:48:14.671Z,25.90
2022-10-05T08:49:14.627Z,27.10
2022-10-05T08:50:14.633Z,24.90
2022-10-05T08:51:14.615Z,26.20
2022-10-05T08:52:22.112Z,26.40
2022-10-05T08:53:14.618Z,27.60
2022-10-05T08:54:14.642Z,25.30
2022-10-05T08:55:14.577Z,23.70
2022-10-05T08:56:19.767Z,24.90
2022-10-05T08:57:15.560Z,26.00
2022-10-05T08:58:14.549Z,24.80
2022-10-05T08:59:14.540Z,25.30
2022-10-05T09:00:14.576Z,25.00
2022-10-05T09:01:14.563Z,24.70
2022-10-05T09:02:14.571Z,24.20
2022-10-05T09:03:14.531Z,23.80
2022-10-05T09:04:14.515Z,23.00
2022-10-05T09:05:14.516Z,25.70
2022-10-05T09:06:14.537Z,25.40
2022-10-05T09:07:14.518Z,25.40
2022-10-05T09:08:14.494Z,24.50
2022-10-05T09:09:14.462Z,23.70
2022-10-05T09:10:14.544Z,24.30
2022-10-05T09:11:14.498Z,23.20
2022-10-05T09:12:14.465Z,24.00
2022-10-05T09:13:14.428Z,22.90
2022-10-05T09:14:14.430Z,22.00
2022-10-05T09:15:25.484Z,20.90
2022-10-05T09:16:15.443Z,21.40
2022-10-05T09:17:14.442Z,19.80
2022-10-05T09:18:14.435Z,19.90
2022-10-05T09:19:14.392Z,19.70
2022-10-05T09:20:14.383Z,20.20
2022-10-05T09:21:14.386Z,19.00
2022-10-05T09:22:14.449Z,20.50
2022-10-05T09:23:14.356Z,19.60
2022-10-05T09:24:14.347Z,19.10
2022-10-05T09:25:14.364Z,19.20
2022-10-05T09:26:14.325Z,19.30
2022-10-05T09:27:14.343Z,16.90
2022-10-05T09:28:14.356Z,16.10
2022-10-05T09:29:14.305Z,15.50
2022-10-05T09:30:14.376Z,16.00
2022-10-05T09:31:14.383Z,15.70
2022-10-05T09:32:16.473Z,14.90
2022-10-05T09:33:14.273Z,15.20
2022-10-05T09:34:14.268Z,16.20
2022-10-05T09:35:14.260Z,14.90
2022-10-05T09:36:14.250Z,13.60
2022-10-05T09:37:14.237Z,14.00
2022-10-05T09:38:14.254Z,12.70
2022-10-05T09:39:14.293Z,13.50
2022-10-05T09:40:14.223Z,11.80
2022-10-05T09:41:14.215Z,12.20
2022-10-05T09:42:14.192Z,11.40
2022-10-05T09:43:14.200Z,11.50
2022-10-05T09:44:15.001Z,10.70
2022-10-05T09:45:18.973Z,11.60
2022-10-05T09:46:15.239Z,10.60
2022-10-05T09:47:14.214Z,9.80
2022-10-05T09:48:14.222Z,11.50
2022-10-05T09:49:14.248Z,11.10
2022-10-05T09:50:14.126Z,11.10
2022-10-05T09:51:14.113Z,11.20
2022-10-05T09:52:18.793Z,10.80
2022-10-05T09:53:15.118Z,10.30
2022-10-05T09:54:14.100Z,11.50
2022-10-05T09:55:14.081Z,10.60
2022-10-05T09:56:14.084Z,11.50
2022-10-05T09:57:14.067Z,10.60
2022-10-05T09:58:14.059Z,10.60
2022-10-05T09:59:14.306Z,10.00
2022-10-05T10:00:14.042Z,10.90
2022-10-05T10:01:32.789Z,9.90
2022-10-05T10:02:15.156Z,9.30
2022-10-05T10:03:14.097Z,9.20
2022-10-05T10:04:14.016Z,8.00
2022-10-05T10:05:14.020Z,10.10
2022-10-05T10:06:14.028Z,9.30
2022-10-05T10:07:13.979Z,10.40
2022-10-05T10:08:14.171Z,9.10
2022-10-05T10:09:13.966Z,8.30
2022-10-05T10:10:13.963Z,8.80
2022-10-05T10:11:13.977Z,9.10
2022-10-05T10:12:13.947Z,9.50
2022-10-05T10:13:13.937Z,9.50
2022-10-05T10:14:14.050Z,9.80
2022-10-05T10:15:13.924Z,9.00
2022-10-05T10:16:14.049Z,7.70
2022-10-05T10:17:13.920Z,9.00
2022-10-05T10:18:13.892Z,8.90
2022-10-05T10:19:13.900Z,9.90
2022-10-05T10:20:13.910Z,9.30
2022-10-05T10:21:13.882Z,9.90
2022-10-05T10:22:13.910Z,10.50
2022-10-05T10:23:13.845Z,10.50
2022-10-05T10:24:13.832Z,8.20
2022-10-05T10:25:13.836Z,9.10
2022-10-05T10:26:13.825Z,9.00
2022-10-05T10:27:13.833Z,8.80
2022-10-05T10:28:13.928Z,9.40
2022-10-05T10:29:13.841Z,8.50
2022-10-05T10:30:13.814Z,8.70
2022-10-05T10:31:13.828Z,8.80
2022-10-05T10:32:13.892Z,8.70
2022-10-05T10:33:13.821Z,8.00
2022-10-05T10:34:13.776Z,8.10
2022-10-05T10:35:13.819Z,8.50
2022-10-05T10:36:13.771Z,9.00
2022-10-05T10:37:13.727Z,7.70
2022-10-05T10:38:13.736Z,8.10
2022-10-05T10:39:13.756Z,8.40
2022-10-05T10:40:13.834Z,14.90
2022-10-05T10:41:13.762Z,9.10
2022-10-05T10:42:13.685Z,8.30
2022-10-05T10:43:13.687Z,8.20
2022-10-05T10:44:13.709Z,8.80
2022-10-05T10:45:13.687Z,7.80
2022-10-05T10:46:13.727Z,7.70
2022-10-05T10:47:13.656Z,8.00
2022-10-05T10:48:13.699Z,8.10
2022-10-05T10:49:13.629Z,7.50
2022-10-05T10:50:13.646Z,8.20
2022-10-05T10:51:13.618Z,12.80
2022-10-05T10:52:13.630Z,7.50
2022-10-05T10:53:13.660Z,6.20
2022-10-05T10:54:13.587Z,7.10
2022-10-05T10:55:13.580Z,6.20
2022-10-05T10:56:13.614Z,6.40
2022-10-05T10:57:13.564Z,7.70
2022-10-05T10:58:16.094Z,6.80
2022-10-05T10:59:13.561Z,6.60
2022-10-05T11:00:13.542Z,5.70
2022-10-05T11:01:13.624Z,6.40
2022-10-05T11:02:13.555Z,6.40
2022-10-05T11:03:13.724Z,6.60
2022-10-05T11:04:13.519Z,6.40
2022-10-05T11:05:13.498Z,6.40
2022-10-05T11:06:13.512Z,5.90
2022-10-05T11:07:13.511Z,6.20
2022-10-05T11:08:13.474Z,6.20
2022-10-05T11:09:14.621Z,6.30
2022-10-05T11:10:13.478Z,6.10
2022-10-05T11:11:13.464Z,5.90
2022-10-05T11:12:13.472Z,6.30
2022-10-05T11:13:13.452Z,6.40
2022-10-05T11:14:13.447Z,6.00
2022-10-05T11:15:13.440Z,5.30
2022-10-05T11:16:15.897Z,5.40
2022-10-05T11:17:14.433Z,6.20
2022-10-05T11:18:13.393Z,6.20
2022-10-05T11:19:13.398Z,5.00
2022-10-05T11:20:13.481Z,6.20
2022-10-05T11:21:13.385Z,5.50
2022-10-05T11:22:13.380Z,5.20
2022-10-05T11:23:13.382Z,6.40
2022-10-05T11:24:13.406Z,5.70
2022-10-05T11:25:13.357Z,5.90
2022-10-05T11:26:13.340Z,6.40
2022-10-05T11:27:13.439Z,5.20
2022-10-05T11:28:14.746Z,6.60
2022-10-05T11:29:13.366Z,12.20
2022-10-05T11:30:13.376Z,8.00
2022-10-05T11:31:13.335Z,5.20
2022-10-05T11:32:13.362Z,5.30
2022-10-05T11:33:13.376Z,5.70
2022-10-05T11:34:13.279Z,5.40
2022-10-05T11:35:13.289Z,6.10
2022-10-05T11:36:13.264Z,6.50
2022-10-05T11:37:13.254Z,6.50
2022-10-05T11:38:13.247Z,6.20
2022-10-05T11:39:13.243Z,5.20
2022-10-05T11:40:13.236Z,4.90
2022-10-05T11:41:13.244Z,6.30
2022-10-05T11:42:13.224Z,6.30
2022-10-05T11:43:13.213Z,4.80
2022-10-05T11:44:13.200Z,5.30
2022-10-05T11:45:13.191Z,5.80
2022-10-05T11:46:13.233Z,5.00
2022-10-05T11:47:13.173Z,6.00
2022-10-05T11:48:13.168Z,5.70
2022-10-05T11:49:13.163Z,8.90
2022-10-05T11:50:13.148Z,6.70
2022-10-05T11:51:13.145Z,7.70
2022-10-05T11:52:13.153Z,6.10
2022-10-05T11:53:13.127Z,5.60
2022-10-05T11:54:13.121Z,5.30
2022-10-05T11:55:13.116Z,5.20
2022-10-05T11:56:13.110Z,5.50
2022-10-05T11:57:13.104Z,4.80
2022-10-05T11:58:13.117Z,5.00
2022-10-05T11:59:13.088Z,4.80
2022-10-05T12:00:13.166Z,4.80
2022-10-05T12:01:13.078Z,5.00
2022-10-05T12:02:13.058Z,5.10
2022-10-05T12:03:13.227Z,5.00
2022-10-05T12:04:13.144Z,5.00
2022-10-05T12:05:13.038Z,5.80
2022-10-05T12:06:13.018Z,4.90
2022-10-05T12:07:13.024Z,6.40
2022-10-05T12:08:13.549Z,6.60
2022-10-05T12:09:13.056Z,5.00
2022-10-05T12:10:13.112Z,5.70
2022-10-05T12:11:12.990Z,5.30
2022-10-05T12:12:13.032Z,5.40
2022-10-05T12:13:13.054Z,6.50
2022-10-05T12:14:12.965Z,5.90
2022-10-05T12:15:12.959Z,4.70
2022-10-05T12:16:12.980Z,5.40
2022-10-05T12:17:12.940Z,5.60
2022-10-05T12:18:12.950Z,4.40
2022-10-05T12:19:12.930Z,4.80
2022-10-05T12:20:12.962Z,8.10
2022-10-05T12:21:12.922Z,5.20
2022-10-05T12:22:12.903Z,5.90
2022-10-05T12:23:12.922Z,4.30
2022-10-05T12:24:12.882Z,4.90
2022-10-05T12:25:12.902Z,4.90
2022-10-05T12:26:12.873Z,4.50
2022-10-05T12:27:12.862Z,5.20
2022-10-05T12:28:12.880Z,4.50
2022-10-05T12:29:12.847Z,4.80
2022-10-05T12:30:12.932Z,5.80
2022-10-05T12:31:12.928Z,5.50
2022-10-05T12:32:12.839Z,4.90
2022-10-05T12:33:12.823Z,5.80
2022-10-05T12:34:12.834Z,4.50
2022-10-05T12:35:12.802Z,4.60
2022-10-05T12:36:12.819Z,5.30
2022-10-05T12:37:12.790Z,6.50
2022-10-05T12:38:12.778Z,4.50
2022-10-05T12:39:12.774Z,4.90
2022-10-05T12:40:12.826Z,5.60
2022-10-05T12:41:12.780Z,5.20
2022-10-05T12:42:12.755Z,5.60
2022-10-05T12:43:12.734Z,4.90
2022-10-05T12:44:12.727Z,5.40
2022-10-05T12:45:12.719Z,4.70
2022-10-05T12:46:12.745Z,5.00
2022-10-05T12:47:12.728Z,5.10
2022-10-05T12:48:12.698Z,5.60
2022-10-05T12:49:12.801Z,5.40
2022-10-05T12:50:12.739Z,6.10
2022-10-05T12:51:12.680Z,6.70
2022-10-05T12:52:12.669Z,6.60
2022-10-05T12:53:12.693Z,5.90
2022-10-05T12:54:12.679Z,5.10